sensor_id;sensor_type;location;lat;lon;timestamp;pressure;altitude;pressure_sealevel;temperature;humidity
12178;BME280;6152;48.728;9.256;2024-02-28T00:01:27;97005.88;;;6.84;100.00
12178;BME280;6152;48.728;9.256;2024-02-28T00:03:53;96996.50;;;6.81;100.00
12178;BME280;6152;48.728;9.256;2024-02-28T00:06:19;97004.31;;;6.80;100.00
12178;BME280;6152;48.728;9.256;2024-02-28T00:08:45;97003.44;;;6.81;100.00
12178;BME280;6152;48.728;9.256;2024-02-28T00:11:12;97001.75;;;6.80;100.00
12178;BME280;6152;48.728;9.256;2024-02-28T00:13:38;97005.31;;;6.77;100.00
12178;BME280;6152;48.728;9.256;2024-02-28T00:16:04;97007.06;;;6.77;100.00
12178;BME280;6152;48.728;9.256;2024-02-28T00:18:30;97011.34;;;6.78;100.00
12178;BME280;6152;48.728;9.256;2024-02-28T00:20:57;97014.69;;;6.80;100.00
12178;BME280;6152;48.728;9.256;2024-02-28T00:23:23;97013.72;;;6.82;100.00
12178;BME280;6152;48.728;9.256;2024-02-28T00:25:49;97015.50;;;6.80;100.00
12178;BME280;6152;48.728;9.256;2024-02-28T00:28:16;97020.47;;;6.85;100.00
12178;BME280;6152;48.728;9.256;2024-02-28T00:30:42;97022.16;;;6.86;100.00
12178;BME280;6152;48.728;9.256;2024-02-28T00:33:08;97018.03;;;6.82;100.00
12178;BME280;6152;48.728;9.256;2024-02-28T00:35:35;97018.09;;;6.80;100.00
12178;BME280;6152;48.728;9.256;2024-02-28T00:38:01;97017.50;;;6.75;100.00
12178;BME280;6152;48.728;9.256;2024-02-28T00:40:27;97023.78;;;6.70;100.00
12178;BME280;6152;48.728;9.256;2024-02-28T00:42:54;97029.94;;;6.67;100.00
12178;BME280;6152;48.728;9.256;2024-02-28T00:45:21;97015.97;;;6.71;100.00
12178;BME280;6152;48.728;9.256;2024-02-28T00:47:47;97028.81;;;6.73;100.00
12178;BME280;6152;48.728;9.256;2024-02-28T00:50:13;97021.47;;;6.64;100.00
12178;BME280;6152;48.728;9.256;2024-02-28T00:52:40;97009.53;;;6.61;100.00
12178;BME280;6152;48.728;9.256;2024-02-28T00:55:07;97017.22;;;6.63;100.00
12178;BME280;6152;48.728;9.256;2024-02-28T00:57:33;97012.03;;;6.63;100.00
12178;BME280;6152;48.728;9.256;2024-02-28T01:00:00;97006.81;;;6.64;100.00
12178;BME280;6152;48.728;9.256;2024-02-28T01:02:26;97004.78;;;6.71;100.00
12178;BME280;6152;48.728;9.256;2024-02-28T01:04:52;97020.13;;;6.74;100.00
12178;BME280;6152;48.728;9.256;2024-02-28T01:07:18;97011.47;;;6.75;100.00
12178;BME280;6152;48.728;9.256;2024-02-28T01:09:44;97021.34;;;6.67;100.00
12178;BME280;6152;48.728;9.256;2024-02-28T01:12:10;97021.97;;;6.72;100.00
12178;BME280;6152;48.728;9.256;2024-02-28T01:14:37;97024.22;;;6.60;100.00
12178;BME280;6152;48.728;9.256;2024-02-28T01:17:03;97025.13;;;6.59;100.00
12178;BME280;6152;48.728;9.256;2024-02-28T01:19:29;97026.00;;;6.58;100.00
12178;BME280;6152;48.728;9.256;2024-02-28T01:21:55;97024.72;;;6.69;100.00
12178;BME280;6152;48.728;9.256;2024-02-28T01:24:22;97019.03;;;6.60;100.00
12178;BME280;6152;48.728;9.256;2024-02-28T01:26:48;97025.13;;;6.59;100.00
12178;BME280;6152;48.728;9.256;2024-02-28T01:29:14;97031.06;;;6.62;100.00
12178;BME280;6152;48.728;9.256;2024-02-28T01:31:40;97024.34;;;6.57;100.00
12178;BME280;6152;48.728;9.256;2024-02-28T01:34:07;97029.38;;;6.60;100.00
12178;BME280;6152;48.728;9.256;2024-02-28T01:36:33;97029.44;;;6.59;100.00
12178;BME280;6152;48.728;9.256;2024-02-28T01:38:59;97039.19;;;6.54;100.00
12178;BME280;6152;48.728;9.256;2024-02-28T01:41:25;97029.72;;;6.53;100.00
12178;BME280;6152;48.728;9.256;2024-02-28T01:43:51;97040.72;;;6.58;100.00
12178;BME280;6152;48.728;9.256;2024-02-28T01:46:29;97037.56;;;6.51;100.00
12178;BME280;6152;48.728;9.256;2024-02-28T01:48:56;97038.88;;;6.41;100.00
12178;BME280;6152;48.728;9.256;2024-02-28T01:51:24;97041.69;;;6.37;100.00
12178;BME280;6152;48.728;9.256;2024-02-28T01:53:53;97035.53;;;6.39;100.00
12178;BME280;6152;48.728;9.256;2024-02-28T01:56:20;97035.53;;;6.39;100.00
12178;BME280;6152;48.728;9.256;2024-02-28T01:58:47;97034.53;;;6.42;100.00
12178;BME280;6152;48.728;9.256;2024-02-28T02:01:17;97032.06;;;6.40;100.00
12178;BME280;6152;48.728;9.256;2024-02-28T02:03:44;97043.34;;;6.38;100.00
12178;BME280;6152;48.728;9.256;2024-02-28T02:06:10;97040.69;;;6.39;100.00
12178;BME280;6152;48.728;9.256;2024-02-28T02:08:37;97042.53;;;6.37;100.00
12178;BME280;6152;48.728;9.256;2024-02-28T02:11:04;97051.19;;;6.36;100.00
12178;BME280;6152;48.728;9.256;2024-02-28T02:13:31;97045.88;;;6.39;100.00
12178;BME280;6152;48.728;9.256;2024-02-28T02:15:57;97055.31;;;6.40;100.00
12178;BME280;6152;48.728;9.256;2024-02-28T02:18:23;97051.19;;;6.36;100.00
12178;BME280;6152;48.728;9.256;2024-02-28T02:20:52;97059.06;;;6.33;100.00
12178;BME280;6152;48.728;9.256;2024-02-28T02:23:20;97062.41;;;6.35;100.00
12178;BME280;6152;48.728;9.256;2024-02-28T02:25:47;97063.22;;;6.37;100.00
12178;BME280;6152;48.728;9.256;2024-02-28T02:28:14;97060.75;;;6.34;100.00
12178;BME280;6152;48.728;9.256;2024-02-28T02:30:41;97064.25;;;6.33;100.00
12178;BME280;6152;48.728;9.256;2024-02-28T02:33:08;97074.44;;;6.36;100.00
12178;BME280;6152;48.728;9.256;2024-02-28T02:35:34;97074.56;;;6.33;100.00
12178;BME280;6152;48.728;9.256;2024-02-28T02:38:01;97073.69;;;6.34;100.00
12178;BME280;6152;48.728;9.256;2024-02-28T02:40:27;97084.03;;;6.34;100.00
12178;BME280;6152;48.728;9.256;2024-02-28T02:42:53;97085.75;;;6.34;100.00
12178;BME280;6152;48.728;9.256;2024-02-28T02:45:19;97091.69;;;6.36;100.00
12178;BME280;6152;48.728;9.256;2024-02-28T02:47:45;97096.84;;;6.36;100.00
12178;BME280;6152;48.728;9.256;2024-02-28T02:50:11;97089.94;;;6.36;100.00
12178;BME280;6152;48.728;9.256;2024-02-28T02:52:38;97094.22;;;6.37;100.00
12178;BME280;6152;48.728;9.256;2024-02-28T02:55:04;97095.88;;;6.38;100.00
12178;BME280;6152;48.728;9.256;2024-02-28T02:57:32;97090.72;;;6.38;100.00
12178;BME280;6152;48.728;9.256;2024-02-28T02:59:59;97097.00;;;6.33;100.00
12178;BME280;6152;48.728;9.256;2024-02-28T03:02:25;97104.00;;;6.31;100.00
12178;BME280;6152;48.728;9.256;2024-02-28T03:04:51;97108.44;;;6.27;100.00
12178;BME280;6152;48.728;9.256;2024-02-28T03:07:17;97109.16;;;6.31;100.00
12178;BME280;6152;48.728;9.256;2024-02-28T03:09:43;97111.97;;;6.25;100.00
12178;BME280;6152;48.728;9.256;2024-02-28T03:12:09;97115.53;;;6.22;100.00
12178;BME280;6152;48.728;9.256;2024-02-28T03:14:36;97122.41;;;6.23;100.00
12178;BME280;6152;48.728;9.256;2024-02-28T03:17:02;97122.41;;;6.23;100.00
12178;BME280;6152;48.728;9.256;2024-02-28T03:19:29;97132.75;;;6.23;100.00
12178;BME280;6152;48.728;9.256;2024-02-28T03:21:55;97135.94;;;6.28;100.00
12178;BME280;6152;48.728;9.256;2024-02-28T03:24:21;97138.47;;;6.30;100.00
12178;BME280;6152;48.728;9.256;2024-02-28T03:26:47;97141.25;;;6.25;100.00
12178;BME280;6152;48.728;9.256;2024-02-28T03:29:13;97136.22;;;6.22;100.00
12178;BME280;6152;48.728;9.256;2024-02-28T03:31:39;97143.22;;;6.20;100.00
12178;BME280;6152;48.728;9.256;2024-02-28T03:34:05;97144.72;;;6.24;100.00
12178;BME280;6152;48.728;9.256;2024-02-28T03:36:31;97154.13;;;6.27;100.00
12178;BME280;6152;48.728;9.256;2024-02-28T03:38:58;97156.88;;;6.22;100.00
12178;BME280;6152;48.728;9.256;2024-02-28T03:41:24;97161.22;;;6.22;100.00
12178;BME280;6152;48.728;9.256;2024-02-28T03:43:50;97156.75;;;6.25;100.00
12178;BME280;6152;48.728;9.256;2024-02-28T03:46:16;97157.59;;;6.26;100.00
12178;BME280;6152;48.728;9.256;2024-02-28T03:48:43;97154.19;;;6.25;100.00
12178;BME280;6152;48.728;9.256;2024-02-28T03:51:09;97158.59;;;6.23;100.00
12178;BME280;6152;48.728;9.256;2024-02-28T03:53:35;97158.72;;;6.20;100.00
12178;BME280;6152;48.728;9.256;2024-02-28T03:56:01;97164.59;;;6.24;100.00
12178;BME280;6152;48.728;9.256;2024-02-28T03:58:28;97162.81;;;6.24;100.00
12178;BME280;6152;48.728;9.256;2024-02-28T04:00:54;97160.25;;;6.24;100.00
12178;BME280;6152;48.728;9.256;2024-02-28T04:03:21;97167.19;;;6.24;100.00
12178;BME280;6152;48.728;9.256;2024-02-28T04:05:47;97167.38;;;6.19;100.00
12178;BME280;6152;48.728;9.256;2024-02-28T04:08:13;97176.28;;;6.12;100.00
12178;BME280;6152;48.728;9.256;2024-02-28T04:10:39;97171.09;;;6.12;100.00
12178;BME280;6152;48.728;9.256;2024-02-28T04:13:05;97174.72;;;6.08;100.00
12178;BME280;6152;48.728;9.256;2024-02-28T04:15:32;97172.00;;;6.11;100.00
12178;BME280;6152;48.728;9.256;2024-02-28T04:17:58;97173.69;;;6.12;100.00
12178;BME280;6152;48.728;9.256;2024-02-28T04:20:24;97178.19;;;6.07;100.00
12178;BME280;6152;48.728;9.256;2024-02-28T04:22:50;97166.44;;;6.00;100.00
12178;BME280;6152;48.728;9.256;2024-02-28T04:25:16;97172.41;;;6.02;100.00
12178;BME280;6152;48.728;9.256;2024-02-28T04:27:42;97173.69;;;5.92;100.00
12178;BME280;6152;48.728;9.256;2024-02-28T04:30:10;97173.41;;;5.98;100.00
12178;BME280;6152;48.728;9.256;2024-02-28T04:32:36;97172.78;;;5.93;100.00
12178;BME280;6152;48.728;9.256;2024-02-28T04:35:04;97166.69;;;5.94;100.00
12178;BME280;6152;48.728;9.256;2024-02-28T04:37:30;97172.13;;;5.88;100.00
12178;BME280;6152;48.728;9.256;2024-02-28T04:39:56;97175.47;;;5.90;100.00
12178;BME280;6152;48.728;9.256;2024-02-28T04:42:22;97184.66;;;5.97;100.00
12178;BME280;6152;48.728;9.256;2024-02-28T04:44:48;97183.13;;;5.93;100.00
12178;BME280;6152;48.728;9.256;2024-02-28T04:47:14;97183.56;;;5.81;100.00
12178;BME280;6152;48.728;9.256;2024-02-28T04:49:40;97183.41;;;5.85;100.00
12178;BME280;6152;48.728;9.256;2024-02-28T04:52:06;97182.13;;;5.74;100.00
12178;BME280;6152;48.728;9.256;2024-02-28T04:54:33;97186.75;;;5.66;100.00
12178;BME280;6152;48.728;9.256;2024-02-28T04:56:59;97188.19;;;5.73;100.00
12178;BME280;6152;48.728;9.256;2024-02-28T04:59:26;97186.72;;;5.67;100.00
12178;BME280;6152;48.728;9.256;2024-02-28T05:01:52;97188.69;;;5.60;100.00
12178;BME280;6152;48.728;9.256;2024-02-28T05:04:18;97187.00;;;5.59;100.00
12178;BME280;6152;48.728;9.256;2024-02-28T05:06:45;97191.44;;;5.56;100.00
12178;BME280;6152;48.728;9.256;2024-02-28T05:09:11;97199.03;;;5.60;100.00
12178;BME280;6152;48.728;9.256;2024-02-28T05:11:37;97202.50;;;5.59;100.00
12178;BME280;6152;48.728;9.256;2024-02-28T05:14:03;97202.50;;;5.59;100.00
12178;BME280;6152;48.728;9.256;2024-02-28T05:16:29;97213.72;;;5.58;100.00
12178;BME280;6152;48.728;9.256;2024-02-28T05:18:55;97218.09;;;5.56;100.00
12178;BME280;6152;48.728;9.256;2024-02-28T05:21:22;97209.22;;;5.64;100.00
12178;BME280;6152;48.728;9.256;2024-02-28T05:23:49;97212.56;;;5.66;100.00
12178;BME280;6152;48.728;9.256;2024-02-28T05:26:15;97217.13;;;5.59;100.00
12178;BME280;6152;48.728;9.256;2024-02-28T05:28:41;97216.19;;;5.62;100.00
12178;BME280;6152;48.728;9.256;2024-02-28T05:31:39;97215.09;;;5.67;100.00
12178;BME280;6152;48.728;9.256;2024-02-28T05:34:06;97220.03;;;5.51;100.00
12178;BME280;6152;48.728;9.256;2024-02-28T05:36:32;97213.19;;;5.50;100.00
12178;BME280;6152;48.728;9.256;2024-02-28T05:38:59;97220.25;;;5.45;100.00
12178;BME280;6152;48.728;9.256;2024-02-28T05:41:27;97225.72;;;5.38;100.00
12178;BME280;6152;48.728;9.256;2024-02-28T05:43:53;97230.78;;;5.41;100.00
12178;BME280;6152;48.728;9.256;2024-02-28T05:46:19;97237.78;;;5.37;100.00
12178;BME280;6152;48.728;9.256;2024-02-28T05:48:48;97242.84;;;5.40;100.00
12178;BME280;6152;48.728;9.256;2024-02-28T05:51:14;97244.41;;;5.44;100.00
12178;BME280;6152;48.728;9.256;2024-02-28T05:53:41;97242.72;;;5.43;100.00
12178;BME280;6152;48.728;9.256;2024-02-28T05:56:09;97236.81;;;5.40;100.00
12178;BME280;6152;48.728;9.256;2024-02-28T05:58:40;97249.06;;;5.35;100.00
12178;BME280;6152;48.728;9.256;2024-02-28T06:01:06;97251.59;;;5.36;100.00
12178;BME280;6152;48.728;9.256;2024-02-28T06:03:33;97251.59;;;5.36;100.00
12178;BME280;6152;48.728;9.256;2024-02-28T06:06:00;97256.75;;;5.36;100.00
12178;BME280;6152;48.728;9.256;2024-02-28T06:08:26;97260.34;;;5.32;100.00
12178;BME280;6152;48.728;9.256;2024-02-28T06:10:52;97268.97;;;5.31;100.00
12178;BME280;6152;48.728;9.256;2024-02-28T06:13:18;97273.50;;;5.25;100.00
12178;BME280;6152;48.728;9.256;2024-02-28T06:15:44;97269.94;;;5.29;100.00
12178;BME280;6152;48.728;9.256;2024-02-28T06:18:10;97274.47;;;5.22;100.00
12178;BME280;6152;48.728;9.256;2024-02-28T06:20:37;97279.75;;;5.19;100.00
12178;BME280;6152;48.728;9.256;2024-02-28T06:23:04;97281.31;;;5.23;100.00
12178;BME280;6152;48.728;9.256;2024-02-28T06:25:30;97283.84;;;5.25;100.00
12178;BME280;6152;48.728;9.256;2024-02-28T06:28:00;97285.47;;;5.27;100.00
12178;BME280;6152;48.728;9.256;2024-02-28T06:30:31;97288.16;;;5.24;100.00
12178;BME280;6152;48.728;9.256;2024-02-28T06:32:59;97294.88;;;5.28;100.00
12178;BME280;6152;48.728;9.256;2024-02-28T06:35:26;97296.91;;;5.20;100.00
12178;BME280;6152;48.728;9.256;2024-02-28T06:37:52;97296.13;;;5.18;100.00
12178;BME280;6152;48.728;9.256;2024-02-28T06:40:18;97307.25;;;5.20;100.00
12178;BME280;6152;48.728;9.256;2024-02-28T06:42:44;97311.66;;;5.17;100.00
12178;BME280;6152;48.728;9.256;2024-02-28T06:45:10;97312.53;;;5.17;100.00
12178;BME280;6152;48.728;9.256;2024-02-28T06:47:37;97314.03;;;5.23;100.00
12178;BME280;6152;48.728;9.256;2024-02-28T06:50:04;97326.84;;;5.24;100.00
12178;BME280;6152;48.728;9.256;2024-02-28T06:52:31;97329.72;;;5.17;100.00
12178;BME280;6152;48.728;9.256;2024-02-28T06:54:57;97328.66;;;5.22;100.00
12178;BME280;6152;48.728;9.256;2024-02-28T06:57:24;97323.25;;;5.28;100.00
12178;BME280;6152;48.728;9.256;2024-02-28T06:59:50;97329.22;;;5.30;100.00
12178;BME280;6152;48.728;9.256;2024-02-28T07:02:16;97331.84;;;5.29;100.00
12178;BME280;6152;48.728;9.256;2024-02-28T07:04:42;97331.84;;;5.29;100.00
12178;BME280;6152;48.728;9.256;2024-02-28T07:07:08;97341.22;;;5.31;100.00
12178;BME280;6152;48.728;9.256;2024-02-28T07:09:37;97334.28;;;5.33;100.00
12178;BME280;6152;48.728;9.256;2024-02-28T07:12:03;97338.34;;;5.39;100.00
12178;BME280;6152;48.728;9.256;2024-02-28T07:14:30;97335.72;;;5.40;100.00
12178;BME280;6152;48.728;9.256;2024-02-28T07:16:56;97334.81;;;5.41;100.00
12178;BME280;6152;48.728;9.256;2024-02-28T07:19:22;97337.41;;;5.41;100.00
12178;BME280;6152;48.728;9.256;2024-02-28T07:21:48;97342.47;;;5.44;100.00
12178;BME280;6152;48.728;9.256;2024-02-28T07:24:14;97342.25;;;5.50;100.00
12178;BME280;6152;48.728;9.256;2024-02-28T07:26:40;97346.31;;;5.56;100.00
12178;BME280;6152;48.728;9.256;2024-02-28T07:29:07;97354.03;;;5.57;100.00
12178;BME280;6152;48.728;9.256;2024-02-28T07:31:33;97360.91;;;5.57;100.00
12178;BME280;6152;48.728;9.256;2024-02-28T07:33:59;97359.81;;;5.64;100.00
12178;BME280;6152;48.728;9.256;2024-02-28T07:36:25;97364.81;;;5.69;100.00
12178;BME280;6152;48.728;9.256;2024-02-28T07:38:51;97366.69;;;5.64;100.00
12178;BME280;6152;48.728;9.256;2024-02-28T07:41:19;97362.84;;;5.75;100.00
12178;BME280;6152;48.728;9.256;2024-02-28T07:43:45;97368.72;;;5.79;100.00
12178;BME280;6152;48.728;9.256;2024-02-28T07:46:12;97372.19;;;5.78;100.00
12178;BME280;6152;48.728;9.256;2024-02-28T07:48:38;97374.31;;;5.67;100.00
12178;BME280;6152;48.728;9.256;2024-02-28T07:51:08;97377.06;;;5.62;100.00
12178;BME280;6152;48.728;9.256;2024-02-28T07:53:35;97375.16;;;5.67;100.00
12178;BME280;6152;48.728;9.256;2024-02-28T07:56:01;97377.78;;;5.66;100.00
12178;BME280;6152;48.728;9.256;2024-02-28T07:58:28;97387.47;;;5.60;100.00
12178;BME280;6152;48.728;9.256;2024-02-28T08:00:54;97390.66;;;5.67;100.00
12178;BME280;6152;48.728;9.256;2024-02-28T08:03:20;97386.19;;;5.72;100.00
12178;BME280;6152;48.728;9.256;2024-02-28T08:05:47;97392.66;;;5.59;100.00
12178;BME280;6152;48.728;9.256;2024-02-28T08:08:14;97396.66;;;5.68;100.00
12178;BME280;6152;48.728;9.256;2024-02-28T08:10:41;97400.16;;;5.67;100.00
12178;BME280;6152;48.728;9.256;2024-02-28T08:13:07;97393.13;;;5.70;100.00
12178;BME280;6152;48.728;9.256;2024-02-28T08:15:36;97400.72;;;5.75;100.00
12178;BME280;6152;48.728;9.256;2024-02-28T08:18:02;97397.13;;;5.79;100.00
12178;BME280;6152;48.728;9.256;2024-02-28T08:20:28;97397.25;;;5.76;100.00
12178;BME280;6152;48.728;9.256;2024-02-28T08:22:54;97404.19;;;5.74;100.00
12178;BME280;6152;48.728;9.256;2024-02-28T08:25:23;97404.34;;;5.69;100.00
12178;BME280;6152;48.728;9.256;2024-02-28T08:27:49;97397.13;;;5.79;100.00
12178;BME280;6152;48.728;9.256;2024-02-28T08:30:15;97400.59;;;5.78;100.00
12178;BME280;6152;48.728;9.256;2024-02-28T08:32:42;97411.81;;;5.77;100.00
12178;BME280;6152;48.728;9.256;2024-02-28T08:35:11;97414.13;;;5.84;100.00
12178;BME280;6152;48.728;9.256;2024-02-28T08:37:40;97407.50;;;5.77;100.00
12178;BME280;6152;48.728;9.256;2024-02-28T08:40:07;97413.63;;;5.75;100.00
12178;BME280;6152;48.728;9.256;2024-02-28T08:42:34;97418.66;;;5.78;100.00
12178;BME280;6152;48.728;9.256;2024-02-28T08:45:01;97412.50;;;5.82;100.00
12178;BME280;6152;48.728;9.256;2024-02-28T08:47:29;97414.88;;;5.88;100.00
12178;BME280;6152;48.728;9.256;2024-02-28T08:49:55;97416.75;;;5.83;100.00
12178;BME280;6152;48.728;9.256;2024-02-28T08:52:21;97423.72;;;5.81;100.00
12178;BME280;6152;48.728;9.256;2024-02-28T08:54:48;97427.53;;;5.95;100.00
12178;BME280;6152;48.728;9.256;2024-02-28T08:57:15;97427.28;;;6.01;100.00
12178;BME280;6152;48.728;9.256;2024-02-28T08:59:41;97430.59;;;6.05;100.00
12178;BME280;6152;48.728;9.256;2024-02-28T09:02:07;97425.31;;;6.08;100.00
12178;BME280;6152;48.728;9.256;2024-02-28T09:04:34;97425.31;;;6.08;100.00
12178;BME280;6152;48.728;9.256;2024-02-28T09:07:00;97425.19;;;6.11;100.00
12178;BME280;6152;48.728;9.256;2024-02-28T09:09:26;97422.47;;;6.14;100.00
12178;BME280;6152;48.728;9.256;2024-02-28T09:11:54;97424.53;;;6.06;100.00
12178;BME280;6152;48.728;9.256;2024-02-28T09:14:20;97418.84;;;6.20;100.00
12178;BME280;6152;48.728;9.256;2024-02-28T09:16:46;97419.38;;;6.28;100.00
12178;BME280;6152;48.728;9.256;2024-02-28T09:19:13;97423.72;;;6.27;100.00
12178;BME280;6152;48.728;9.256;2024-02-28T09:21:39;97429.22;;;6.18;100.00
12178;BME280;6152;48.728;9.256;2024-02-28T09:24:06;97428.13;;;6.02;100.00
12178;BME280;6152;48.728;9.256;2024-02-28T09:26:32;97437.88;;;6.17;100.00
12178;BME280;6152;48.728;9.256;2024-02-28T09:28:58;97438.31;;;6.28;100.00
12178;BME280;6152;48.728;9.256;2024-02-28T09:31:24;97430.34;;;6.34;100.00
12178;BME280;6152;48.728;9.256;2024-02-28T09:33:51;97431.47;;;6.27;100.00
12178;BME280;6152;48.728;9.256;2024-02-28T09:36:17;97439.75;;;6.35;100.00
12178;BME280;6152;48.728;9.256;2024-02-28T09:38:43;97432.72;;;6.39;100.00
12178;BME280;6152;48.728;9.256;2024-02-28T09:41:15;97437.72;;;6.43;100.00
12178;BME280;6152;48.728;9.256;2024-02-28T09:43:42;97443.53;;;6.48;100.00
12178;BME280;6152;48.728;9.256;2024-02-28T09:46:08;97433.16;;;6.50;100.00
12178;BME280;6152;48.728;9.256;2024-02-28T09:48:41;97439.59;;;6.62;100.00
12178;BME280;6152;48.728;9.256;2024-02-28T09:51:08;97442.69;;;6.70;100.00
12178;BME280;6152;48.728;9.256;2024-02-28T09:53:36;97445.84;;;6.78;100.00
12178;BME280;6152;48.728;9.256;2024-02-28T09:56:03;97451.00;;;6.78;100.00
12178;BME280;6152;48.728;9.256;2024-02-28T09:58:31;97453.03;;;6.70;100.00
12178;BME280;6152;48.728;9.256;2024-02-28T10:00:59;97451.25;;;6.72;100.00
12178;BME280;6152;48.728;9.256;2024-02-28T10:03:29;97442.81;;;6.67;100.00
12178;BME280;6152;48.728;9.256;2024-02-28T10:05:55;97451.47;;;6.66;100.00
12178;BME280;6152;48.728;9.256;2024-02-28T10:08:21;97455.13;;;6.62;100.00
12178;BME280;6152;48.728;9.256;2024-02-28T10:10:49;97453.16;;;6.67;100.00
12178;BME280;6152;48.728;9.256;2024-02-28T10:13:18;97450.47;;;6.70;100.00
12178;BME280;6152;48.728;9.256;2024-02-28T10:15:45;97457.28;;;6.72;100.00
12178;BME280;6152;48.728;9.256;2024-02-28T10:18:11;97454.31;;;6.81;100.00
12178;BME280;6152;48.728;9.256;2024-02-28T10:20:37;97457.75;;;6.82;100.00
12178;BME280;6152;48.728;9.256;2024-02-28T10:23:05;97454.84;;;6.89;100.00
12178;BME280;6152;48.728;9.256;2024-02-28T10:25:32;97463.06;;;6.99;100.00
12178;BME280;6152;48.728;9.256;2024-02-28T10:28:01;97464.97;;;7.16;100.00
12178;BME280;6152;48.728;9.256;2024-02-28T10:30:28;97467.47;;;7.17;100.00
12178;BME280;6152;48.728;9.256;2024-02-28T10:32:55;97467.59;;;7.14;100.00
12178;BME280;6152;48.728;9.256;2024-02-28T10:35:22;97468.13;;;7.22;100.00
12178;BME280;6152;48.728;9.256;2024-02-28T10:37:52;97473.44;;;7.19;100.00
12178;BME280;6152;48.728;9.256;2024-02-28T10:40:21;97478.63;;;7.39;100.00
12178;BME280;6152;48.728;9.256;2024-02-28T10:42:48;97483.28;;;7.31;100.00
12178;BME280;6152;48.728;9.256;2024-02-28T10:45:17;97492.72;;;7.32;100.00
12178;BME280;6152;48.728;9.256;2024-02-28T10:47:44;97493.91;;;7.25;100.00
12178;BME280;6152;48.728;9.256;2024-02-28T10:50:11;97491.25;;;7.27;100.00
12178;BME280;6152;48.728;9.256;2024-02-28T10:52:45;97500.38;;;7.35;100.00
12178;BME280;6152;48.728;9.256;2024-02-28T10:55:23;97501.09;;;7.39;100.00
12178;BME280;6152;48.728;9.256;2024-02-28T10:57:56;97496.56;;;7.44;100.00
12178;BME280;6152;48.728;9.256;2024-02-28T11:00:24;97498.44;;;7.40;100.00
12178;BME280;6152;48.728;9.256;2024-02-28T11:02:50;97498.31;;;7.43;100.00
12178;BME280;6152;48.728;9.256;2024-02-28T11:05:16;97497.53;;;7.41;100.00
12178;BME280;6152;48.728;9.256;2024-02-28T11:07:42;97489.88;;;7.38;100.00
12178;BME280;6152;48.728;9.256;2024-02-28T11:10:09;97491.38;;;7.24;100.00
12178;BME280;6152;48.728;9.256;2024-02-28T11:12:36;97490.91;;;7.14;100.00
12178;BME280;6152;48.728;9.256;2024-02-28T11:15:04;97489.88;;;7.18;100.00
12178;BME280;6152;48.728;9.256;2024-02-28T11:17:33;97493.13;;;7.23;100.00
12178;BME280;6152;48.728;9.256;2024-02-28T11:19:59;97496.47;;;7.05;100.00
12178;BME280;6152;48.728;9.256;2024-02-28T11:22:29;97497.75;;;7.15;100.00
12178;BME280;6152;48.728;9.256;2024-02-28T11:24:55;97501.25;;;7.14;100.00
12178;BME280;6152;48.728;9.256;2024-02-28T11:27:22;97501.25;;;7.14;100.00
12178;BME280;6152;48.728;9.256;2024-02-28T11:29:48;97505.06;;;7.05;100.00
12178;BME280;6152;48.728;9.256;2024-02-28T11:32:15;97506.03;;;7.03;100.00
12178;BME280;6152;48.728;9.256;2024-02-28T11:34:42;97509.78;;;6.96;100.00
12178;BME280;6152;48.728;9.256;2024-02-28T11:37:09;97510.78;;;6.92;100.00
12178;BME280;6152;48.728;9.256;2024-02-28T11:39:36;97506.47;;;6.92;100.00
12178;BME280;6152;48.728;9.256;2024-02-28T11:42:12;97506.34;;;6.95;100.00
12178;BME280;6152;48.728;9.256;2024-02-28T11:44:41;97499.88;;;7.05;100.00
12178;BME280;6152;48.728;9.256;2024-02-28T11:47:10;97511.72;;;7.11;100.00
12178;BME280;6152;48.728;9.256;2024-02-28T11:49:38;97505.84;;;7.07;100.00
12178;BME280;6152;48.728;9.256;2024-02-28T11:52:07;97509.34;;;7.06;100.00
12178;BME280;6152;48.728;9.256;2024-02-28T11:54:33;97510.41;;;7.01;100.00
12178;BME280;6152;48.728;9.256;2024-02-28T11:56:59;97516.28;;;7.06;100.00
12178;BME280;6152;48.728;9.256;2024-02-28T11:59:26;97509.81;;;7.16;100.00
12178;BME280;6152;48.728;9.256;2024-02-28T12:01:52;97517.69;;;7.13;100.00
12178;BME280;6152;48.728;9.256;2024-02-28T12:04:18;97511.59;;;7.14;100.00
12178;BME280;6152;48.728;9.256;2024-02-28T12:06:44;97506.94;;;7.02;100.00
12178;BME280;6152;48.728;9.256;2024-02-28T12:09:12;97503.47;;;7.03;100.00
12178;BME280;6152;48.728;9.256;2024-02-28T12:11:40;97502.91;;;7.17;100.00
12178;BME280;6152;48.728;9.256;2024-02-28T12:14:08;97496.88;;;7.16;100.00
12178;BME280;6152;48.728;9.256;2024-02-28T12:16:38;97493.91;;;7.25;100.00
12178;BME280;6152;48.728;9.256;2024-02-28T12:19:08;97495.72;;;7.23;100.00
12178;BME280;6152;48.728;9.256;2024-02-28T12:21:39;97492.97;;;7.06;100.00
12178;BME280;6152;48.728;9.256;2024-02-28T12:24:09;97488.56;;;7.08;100.00
12178;BME280;6152;48.728;9.256;2024-02-28T12:26:36;97492.25;;;7.02;100.00
12178;BME280;6152;48.728;9.256;2024-02-28T12:29:02;97488.28;;;6.94;100.00
12178;BME280;6152;48.728;9.256;2024-02-28T12:31:28;97489.47;;;7.07;100.00
12178;BME280;6152;48.728;9.256;2024-02-28T12:33:55;97484.28;;;7.07;100.00
12178;BME280;6152;48.728;9.256;2024-02-28T12:36:21;97487.94;;;7.03;100.00
12178;BME280;6152;48.728;9.256;2024-02-28T12:38:47;97479.38;;;7.01;100.00
12178;BME280;6152;48.728;9.256;2024-02-28T12:41:14;97478.78;;;6.94;100.00
12178;BME280;6152;48.728;9.256;2024-02-28T12:43:41;97485.25;;;7.04;100.00
12178;BME280;6152;48.728;9.256;2024-02-28T12:46:07;97482.84;;;7.00;100.00
12178;BME280;6152;48.728;9.256;2024-02-28T12:48:40;97479.31;;;7.02;100.00
12178;BME280;6152;48.728;9.256;2024-02-28T12:51:08;97480.63;;;7.13;100.00
12178;BME280;6152;48.728;9.256;2024-02-28T12:53:36;97485.72;;;7.14;100.00
12178;BME280;6152;48.728;9.256;2024-02-28T12:56:02;97485.84;;;7.11;100.00
12178;BME280;6152;48.728;9.256;2024-02-28T12:58:28;97481.06;;;7.02;100.00
12178;BME280;6152;48.728;9.256;2024-02-28T13:00:54;97481.78;;;7.05;100.00
12178;BME280;6152;48.728;9.256;2024-02-28T13:03:21;97481.09;;;7.00;100.00
12178;BME280;6152;48.728;9.256;2024-02-28T13:05:47;97479.06;;;6.87;100.00
12178;BME280;6152;48.728;9.256;2024-02-28T13:08:13;97479.38;;;6.79;100.00